createdAt,value
2019-03-16T00:02:09.555Z,60.38
2019-03-16T00:04:40.292Z,60.23
2019-03-16T00:07:12.102Z,60.22
2019-03-16T00:09:46.229Z,60.75
2019-03-16T00:12:17.407Z,61.13
2019-03-16T00:14:48.735Z,59.80
2019-03-16T00:17:23.112Z,59.46
2019-03-16T00:19:52.257Z,59.45
2019-03-16T00:22:23.601Z,59.95
2019-03-16T00:24:54.623Z,59.71
2019-03-16T00:27:26.085Z,59.83
2019-03-16T00:29:57.379Z,58.92
2019-03-16T00:32:28.580Z,58.64
2019-03-16T00:34:59.943Z,59.95
2019-03-16T00:37:30.864Z,59.47
2019-03-16T00:40:07.123Z,59.21
2019-03-16T00:42:37.965Z,59.26
2019-03-16T00:45:10.686Z,58.94
2019-03-16T00:47:41.809Z,59.31
2019-03-16T00:50:14.104Z,59.51
2019-03-16T00:52:45.164Z,59.04
2019-03-16T00:55:16.153Z,58.95
2019-03-16T00:57:46.881Z,59.81
2019-03-16T01:00:18.508Z,59.86
2019-03-16T01:02:49.558Z,59.56
2019-03-16T01:05:20.172Z,59.65
2019-03-16T01:07:51.432Z,59.80
2019-03-16T01:10:22.328Z,60.07
2019-03-16T01:12:53.161Z,60.36
2019-03-16T01:15:24.082Z,60.46
2019-03-16T01:17:55.226Z,60.10
2019-03-16T01:20:26.077Z,60.60
2019-03-16T01:22:57.093Z,60.76
2019-03-16T01:25:28.330Z,60.36
2019-03-16T01:27:59.172Z,60.80
2019-03-16T01:30:30.547Z,60.37
2019-03-16T01:33:01.837Z,60.47
2019-03-16T01:35:33.389Z,60.92
2019-03-16T01:38:05.095Z,60.78
2019-03-16T01:40:35.877Z,60.87
2019-03-16T01:43:06.774Z,60.06
2019-03-16T01:45:37.687Z,60.55
2019-03-16T01:48:08.530Z,60.31
2019-03-16T01:50:40.287Z,60.44
2019-03-16T01:53:11.336Z,60.77
2019-03-16T01:55:42.440Z,60.44
2019-03-16T01:58:13.882Z,60.68
2019-03-16T02:00:45.041Z,60.74
2019-03-16T02:03:15.984Z,60.53
2019-03-16T02:05:46.647Z,60.45
2019-03-16T02:08:17.942Z,60.34
2019-03-16T02:10:48.497Z,60.80
2019-03-16T02:13:19.574Z,61.19
2019-03-16T02:15:51.075Z,60.76
2019-03-16T02:18:21.990Z,60.61
2019-03-16T02:20:53.415Z,60.59
2019-03-16T02:23:24.811Z,60.54
2019-03-16T02:25:55.972Z,61.41
2019-03-16T02:28:27.295Z,60.98
2019-03-16T02:30:58.007Z,61.10
2019-03-16T02:33:29.182Z,61.60
2019-03-16T02:36:00.305Z,61.17
2019-03-16T02:38:32.823Z,61.54
2019-03-16T02:41:03.548Z,61.66
2019-03-16T02:43:34.772Z,61.91
2019-03-16T02:46:05.463Z,61.53
2019-03-16T02:48:36.148Z,61.78
2019-03-16T02:51:08.629Z,62.03
2019-03-16T02:53:39.539Z,61.60
2019-03-16T02:56:10.636Z,61.99
2019-03-16T02:58:41.501Z,61.95
2019-03-16T03:01:12.516Z,61.92
2019-03-16T03:03:43.342Z,61.95
2019-03-16T03:06:14.100Z,61.94
2019-03-16T03:08:45.290Z,62.75
2019-03-16T03:11:16.032Z,62.16
2019-03-16T03:13:47.092Z,61.99
2019-03-16T03:16:18.354Z,62.12
2019-03-16T03:18:50.115Z,62.08
2019-03-16T03:21:21.249Z,62.28
2019-03-16T03:23:51.966Z,62.38
2019-03-16T03:26:22.934Z,62.23
2019-03-16T03:28:53.652Z,61.84
2019-03-16T03:31:24.347Z,62.10
2019-03-16T03:34:00.812Z,62.29
2019-03-16T03:36:27.562Z,62.30
2019-03-16T03:38:58.714Z,62.54
2019-03-16T03:41:30.707Z,62.46
2019-03-16T03:44:01.928Z,62.61
2019-03-16T03:46:32.804Z,61.85
2019-03-16T03:49:04.927Z,62.37
2019-03-16T03:51:36.222Z,62.12
2019-03-16T03:54:07.154Z,62.66
2019-03-16T03:56:38.131Z,62.16
2019-03-16T03:59:09.252Z,62.64
2019-03-16T04:01:40.638Z,62.30
2019-03-16T04:04:15.843Z,62.44
2019-03-16T04:06:44.073Z,62.07
2019-03-16T04:09:15.064Z,62.07
2019-03-16T04:11:46.264Z,62.42
2019-03-16T04:14:17.667Z,62.34
2019-03-16T04:16:48.383Z,62.87
2019-03-16T04:19:19.338Z,62.76
2019-03-16T04:21:49.926Z,62.75
2019-03-16T04:24:21.064Z,62.70
2019-03-16T04:26:51.995Z,62.87
2019-03-16T04:29:23.256Z,63.01
2019-03-16T04:31:54.260Z,63.07
2019-03-16T04:34:29.671Z,62.82
2019-03-16T04:36:57.601Z,62.96
2019-03-16T04:39:28.655Z,62.75
2019-03-16T04:41:59.950Z,62.93
2019-03-16T04:44:30.886Z,62.87
2019-03-16T04:47:01.564Z,63.31
2019-03-16T04:49:32.704Z,63.58
2019-03-16T04:52:03.655Z,63.35
2019-03-16T04:54:34.775Z,63.01
2019-03-16T04:57:05.559Z,63.34
2019-03-16T04:59:36.598Z,63.42
2019-03-16T05:02:07.456Z,63.55
2019-03-16T05:04:42.747Z,63.36
2019-03-16T05:07:10.771Z,63.19
2019-03-16T05:09:42.363Z,63.50
2019-03-16T05:12:13.335Z,64.01
2019-03-16T05:14:44.646Z,63.87
2019-03-16T05:17:15.948Z,63.84
2019-03-16T05:19:47.082Z,64.29
2019-03-16T05:22:18.226Z,64.24
2019-03-16T05:24:49.160Z,64.54
2019-03-16T05:27:20.576Z,64.80
2019-03-16T05:29:51.599Z,64.64
2019-03-16T05:32:22.484Z,64.86
2019-03-16T05:34:56.809Z,64.80
2019-03-16T05:37:26.141Z,65.66
2019-03-16T05:39:57.477Z,65.35
2019-03-16T05:42:30.304Z,65.67
2019-03-16T05:45:01.223Z,65.91
2019-03-16T05:47:32.447Z,66.13
2019-03-16T05:50:06.960Z,66.66
2019-03-16T05:52:37.926Z,66.39
2019-03-16T05:55:08.842Z,66.68
2019-03-16T05:57:39.767Z,66.75
2019-03-16T06:00:13.224Z,67.14
2019-03-16T06:02:44.264Z,67.27
2019-03-16T06:05:15.236Z,67.18
2019-03-16T06:07:47.115Z,67.46
2019-03-16T06:10:18.558Z,67.26
2019-03-16T06:12:49.585Z,66.77
2019-03-16T06:15:20.706Z,66.90
2019-03-16T06:17:51.687Z,65.93
2019-03-16T06:20:22.954Z,66.53
2019-03-16T06:22:54.096Z,66.26
2019-03-16T06:25:25.088Z,66.72
2019-03-16T06:27:56.046Z,66.51
2019-03-16T06:30:28.214Z,66.39
2019-03-16T06:32:59.339Z,66.00
2019-03-16T06:35:30.273Z,66.10
2019-03-16T06:38:01.339Z,65.67
2019-03-16T06:40:32.480Z,65.42
2019-03-16T06:43:03.541Z,65.51
2019-03-16T06:45:35.082Z,65.63
2019-03-16T06:48:06.550Z,65.51
2019-03-16T06:50:37.622Z,65.73
2019-03-16T06:53:08.959Z,65.40
2019-03-16T06:55:40.289Z,65.49
2019-03-16T06:58:11.356Z,65.38
2019-03-16T07:00:42.227Z,65.38
2019-03-16T07:03:13.389Z,65.38
2019-03-16T07:05:44.077Z,65.19
2019-03-16T07:08:15.191Z,65.43
2019-03-16T07:10:46.154Z,65.87
2019-03-16T07:13:17.721Z,66.65
2019-03-16T07:15:50.002Z,65.70
2019-03-16T07:18:20.877Z,66.07
2019-03-16T07:20:51.583Z,66.06
2019-03-16T07:23:24.132Z,66.38
2019-03-16T07:25:58.533Z,65.99
2019-03-16T07:28:29.693Z,65.05
2019-03-16T07:31:07.186Z,65.80
2019-03-16T07:33:41.250Z,65.96
2019-03-16T07:36:12.529Z,66.40
2019-03-16T07:38:44.553Z,66.43
2019-03-16T07:41:17.221Z,66.87
2019-03-16T07:43:48.450Z,66.45
2019-03-16T07:46:19.852Z,66.20
2019-03-16T07:48:50.841Z,66.81
2019-03-16T07:51:25.078Z,66.29
2019-03-16T07:53:58.260Z,66.78
2019-03-16T07:56:29.507Z,66.41
2019-03-16T07:59:00.782Z,66.26
2019-03-16T08:01:31.361Z,66.24
2019-03-16T08:04:02.583Z,67.10
2019-03-16T08:06:33.864Z,66.96
2019-03-16T08:09:06.069Z,68.40
2019-03-16T08:11:37.519Z,68.91
2019-03-16T08:14:08.737Z,69.48
2019-03-16T08:16:40.013Z,68.46
2019-03-16T08:19:12.375Z,69.52
2019-03-16T08:21:43.382Z,69.63
2019-03-16T08:24:14.083Z,68.42
2019-03-16T08:26:45.003Z,68.57
2019-03-16T08:29:17.521Z,68.72
2019-03-16T08:31:49.372Z,69.69
2019-03-16T08:34:21.130Z,67.49
2019-03-16T08:36:52.089Z,67.03
2019-03-16T08:39:23.725Z,66.40
2019-03-16T08:41:54.773Z,65.45
2019-03-16T08:44:26.878Z,64.22
2019-03-16T08:46:58.036Z,64.53
2019-03-16T08:49:29.004Z,64.23
2019-03-16T08:51:59.902Z,63.67
2019-03-16T08:54:31.059Z,63.42
2019-03-16T08:57:02.763Z,62.48
2019-03-16T08:59:33.611Z,61.92
2019-03-16T09:02:04.495Z,62.43
2019-03-16T09:04:35.778Z,63.88
2019-03-16T09:07:07.179Z,64.64
2019-03-16T09:09:38.461Z,65.20
2019-03-16T09:12:10.012Z,65.60
2019-03-16T09:14:40.911Z,64.76
2019-03-16T09:17:11.778Z,64.75
2019-03-16T09:19:42.533Z,62.53
2019-03-16T09:22:13.036Z,62.03
2019-03-16T09:24:43.721Z,61.14
2019-03-16T09:27:14.203Z,61.24
2019-03-16T09:29:44.822Z,60.41
2019-03-16T09:32:15.572Z,59.46
2019-03-16T09:34:46.252Z,60.81
2019-03-16T09:37:16.671Z,59.32
2019-03-16T09:39:47.371Z,59.25
2019-03-16T09:42:17.994Z,59.53
2019-03-16T09:44:49.548Z,60.17
2019-03-16T09:47:20.067Z,60.37
2019-03-16T09:49:50.860Z,60.49
2019-03-16T09:52:21.572Z,59.38
2019-03-16T09:54:52.467Z,59.54
2019-03-16T09:57:23.082Z,59.78
2019-03-16T09:59:53.788Z,61.07
2019-03-16T10:02:24.212Z,61.42
2019-03-16T10:04:54.883Z,61.58
2019-03-16T10:07:25.411Z,62.39
2019-03-16T10:09:55.948Z,60.87
2019-03-16T10:12:26.692Z,61.00
2019-03-16T10:14:57.199Z,60.41
2019-03-16T10:17:34.882Z,60.44
2019-03-16T10:20:16.554Z,60.20
2019-03-16T10:22:47.892Z,59.76
2019-03-16T10:25:19.562Z,59.52
2019-03-16T10:27:50.772Z,59.14
2019-03-16T10:30:22.670Z,58.67
2019-03-16T10:32:54.203Z,58.09
2019-03-16T10:35:25.261Z,58.06
2019-03-16T10:37:56.527Z,57.78
2019-03-16T10:40:27.597Z,57.18
2019-03-16T10:42:59.666Z,57.64
2019-03-16T10:45:30.449Z,57.06
2019-03-16T10:48:01.567Z,57.21
2019-03-16T10:50:32.939Z,58.16
2019-03-16T10:53:04.043Z,57.75
2019-03-16T10:55:35.228Z,57.65
2019-03-16T10:58:05.872Z,57.90
2019-03-16T11:00:37.033Z,57.90
2019-03-16T11:03:08.376Z,57.42
2019-03-16T11:05:39.625Z,57.63
2019-03-16T11:08:10.356Z,57.29
2019-03-16T11:10:41.530Z,55.66
2019-03-16T11:13:13.395Z,56.47
2019-03-16T11:15:44.733Z,56.36
2019-03-16T11:18:16.061Z,56.66
2019-03-16T11:20:47.235Z,55.62
2019-03-16T11:23:18.154Z,55.89
2019-03-16T11:25:49.367Z,57.08
2019-03-16T11:28:20.489Z,56.35
2019-03-16T11:30:52.190Z,56.06
2019-03-16T11:33:22.954Z,56.30
2019-03-16T11:35:54.402Z,56.16
2019-03-16T11:38:25.676Z,55.89
2019-03-16T11:40:56.562Z,56.14
2019-03-16T11:43:27.499Z,55.40
2019-03-16T11:45:58.588Z,54.92
2019-03-16T11:48:29.311Z,55.47
2019-03-16T11:51:00.499Z,55.15
2019-03-16T11:53:31.849Z,55.61
2019-03-16T11:56:03.475Z,55.48
2019-03-16T11:58:34.250Z,55.26
2019-03-16T12:01:05.219Z,55.85
2019-03-16T12:03:36.594Z,56.10
2019-03-16T12:09:44.239Z,53.13
2019-03-16T12:12:15.149Z,52.19
2019-03-16T12:14:48.965Z,51.14
2019-03-16T12:17:20.336Z,52.00
2019-03-16T12:19:51.215Z,52.66
2019-03-16T12:22:23.145Z,51.67
2019-03-16T12:24:54.206Z,51.80
2019-03-16T12:27:25.414Z,52.47
2019-03-16T12:29:56.600Z,52.11
2019-03-16T12:32:28.280Z,52.08
2019-03-16T12:34:59.675Z,50.44
2019-03-16T12:37:30.453Z,51.05
2019-03-16T12:40:01.500Z,51.94
2019-03-16T12:42:32.539Z,52.77
2019-03-16T12:45:03.800Z,52.56
2019-03-16T12:47:35.121Z,52.72
2019-03-16T12:50:08.573Z,52.52
2019-03-16T12:52:40.767Z,52.00
2019-03-16T12:55:13.944Z,50.99
2019-03-16T12:57:47.744Z,50.73
2019-03-16T13:00:19.501Z,50.14
2019-03-16T13:02:50.790Z,49.63
2019-03-16T13:05:22.191Z,50.61
2019-03-16T13:07:53.260Z,49.96
2019-03-16T13:10:24.432Z,51.04
2019-03-16T13:12:55.759Z,49.54
2019-03-16T13:15:26.666Z,50.30
2019-03-16T15:10:13.014Z,50.30
2019-03-16T15:12:44.700Z,49.96
2019-03-16T15:15:17.876Z,50.87
2019-03-16T15:17:49.285Z,50.59
2019-03-16T15:20:20.379Z,50.38
2019-03-16T15:22:53.665Z,50.58
2019-03-16T15:25:25.135Z,50.33
2019-03-16T15:27:56.734Z,50.23
2019-03-16T15:30:28.263Z,50.54
2019-03-16T15:33:00.506Z,50.85
2019-03-16T15:35:31.602Z,50.91
2019-03-16T15:38:02.778Z,51.60
2019-03-16T15:40:33.824Z,51.98
2019-03-16T15:43:05.421Z,52.48
2019-03-16T15:45:36.587Z,53.26
2019-03-16T15:48:07.409Z,53.48
2019-03-16T15:50:38.225Z,54.20
2019-03-16T15:53:09.536Z,53.67
2019-03-16T15:55:40.397Z,54.61
2019-03-16T15:58:11.464Z,55.93
2019-03-16T16:00:42.727Z,56.73
2019-03-16T16:03:13.806Z,56.96
2019-03-16T16:05:44.777Z,57.74
2019-03-16T16:08:15.901Z,58.52
2019-03-16T16:10:59.681Z,59.14
2019-03-16T16:13:20.006Z,59.21
2019-03-16T16:15:51.254Z,59.60
2019-03-16T16:18:22.321Z,60.07
2019-03-16T16:20:53.386Z,60.45
2019-03-16T16:23:24.451Z,60.75
2019-03-16T16:25:56.063Z,61.19
2019-03-16T16:28:28.987Z,61.88
2019-03-16T16:31:00.643Z,62.04
2019-03-16T16:33:31.505Z,62.41
2019-03-16T16:36:03.264Z,63.48
2019-03-16T16:38:36.216Z,63.74
2019-03-16T16:41:07.144Z,63.72
2019-03-16T16:43:42.234Z,64.15
2019-03-16T16:46:12.985Z,64.38
2019-03-16T16:48:44.988Z,64.53
2019-03-16T16:51:16.408Z,64.03
2019-03-16T16:53:47.568Z,64.81
2019-03-16T16:56:18.621Z,64.06
2019-03-16T16:58:50.008Z,64.63
2019-03-16T17:01:29.325Z,65.14
2019-03-16T17:03:55.649Z,65.32
2019-03-16T17:06:28.047Z,66.16
2019-03-16T17:08:59.289Z,66.94
2019-03-16T17:11:32.011Z,68.74
2019-03-16T17:14:03.409Z,70.48
2019-03-16T17:16:34.213Z,71.58
2019-03-16T17:19:08.033Z,73.01
2019-03-16T17:21:42.769Z,74.87
2019-03-16T17:24:15.211Z,75.65
2019-03-16T17:26:49.564Z,76.41
2019-03-16T17:29:21.728Z,77.64
2019-03-16T17:31:57.874Z,78.39
2019-03-16T17:34:31.941Z,78.39
2019-03-16T17:37:08.617Z,79.31
2019-03-16T17:39:50.489Z,80.13
2019-03-16T17:42:23.763Z,80.06
2019-03-16T17:44:55.332Z,80.32
2019-03-16T17:47:30.727Z,81.78
2019-03-16T17:50:11.505Z,82.18
2019-03-16T17:52:44.602Z,81.86
2019-03-16T17:55:20.179Z,82.51
2019-03-16T17:58:01.288Z,82.78
2019-03-16T18:04:20.801Z,83.14
2019-03-16T18:07:12.136Z,83.32
2019-03-16T18:09:55.079Z,83.25
2019-03-16T18:26:35.218Z,83.61
2019-03-16T18:29:11.694Z,84.09
2019-03-16T18:32:15.749Z,84.33
2019-03-16T18:35:29.672Z,84.59
2019-03-16T18:42:15.525Z,85.06
2019-03-16T19:01:45.036Z,86.42
2019-03-16T19:04:15.891Z,87.05
2019-03-16T19:06:46.649Z,87.18
2019-03-16T19:09:18.278Z,86.99
2019-03-16T19:11:49.522Z,86.81
2019-03-16T19:14:20.893Z,86.78
2019-03-16T19:16:52.589Z,86.64
2019-03-16T19:19:24.068Z,86.59
2019-03-16T19:21:55.093Z,87.19
2019-03-16T19:24:25.998Z,87.27
2019-03-16T19:26:57.054Z,87.15
2019-03-16T19:29:29.729Z,87.30
2019-03-16T19:32:00.792Z,87.37
2019-03-16T19:34:32.059Z,87.35
2019-03-16T19:37:04.495Z,87.47
2019-03-16T19:39:35.249Z,87.61
2019-03-16T19:42:07.182Z,87.94
2019-03-16T19:44:38.539Z,87.83
2019-03-16T19:47:09.858Z,87.69
2019-03-16T19:49:41.879Z,87.91
2019-03-16T19:52:13.759Z,88.31
2019-03-16T19:54:45.234Z,88.46
2019-03-16T19:57:19.946Z,88.34
2019-03-16T19:59:51.932Z,88.57
2019-03-16T20:02:23.979Z,88.71
2019-03-16T22:11:14.388Z,93.14
2019-03-16T22:13:46.321Z,92.96
2019-03-16T22:16:18.404Z,93.18
2019-03-16T22:18:50.013Z,93.22
2019-03-16T22:21:23.499Z,93.01
2019-03-16T22:23:55.226Z,92.96
2019-03-16T22:26:26.131Z,93.03
2019-03-16T22:28:57.769Z,92.93
2019-03-16T22:31:29.239Z,92.93
2019-03-16T22:34:00.881Z,92.78
2019-03-16T22:36:32.122Z,92.61
2019-03-16T22:39:04.001Z,92.65
2019-03-16T22:41:34.979Z,92.67
2019-03-16T22:44:06.360Z,92.84
2019-03-16T22:46:38.308Z,92.97
2019-03-16T22:49:11.221Z,93.04
2019-03-16T22:51:43.180Z,93.17
2019-03-16T22:54:14.042Z,93.49
2019-03-16T22:56:45.521Z,93.69
2019-03-16T22:59:16.884Z,94.20
2019-03-16T23:01:49.622Z,94.13
2019-03-16T23:04:22.126Z,94.13
2019-03-16T23:06:55.202Z,94.29
2019-03-16T23:09:26.839Z,94.46
2019-03-16T23:11:59.549Z,94.59
2019-03-16T23:14:38.520Z,94.45
2019-03-16T23:17:12.080Z,94.55
2019-03-16T23:19:44.300Z,94.67
2019-03-16T23:22:17.189Z,94.49
2019-03-16T23:24:54.641Z,94.39
2019-03-16T23:27:26.465Z,94.39
2019-03-16T23:29:57.663Z,94.36
2019-03-16T23:32:30.953Z,94.44
2019-03-16T23:35:02.821Z,94.55
2019-03-16T23:37:33.899Z,94.50
2019-03-16T23:40:07.800Z,94.47
2019-03-16T23:42:39.249Z,94.36
2019-03-16T23:45:22.793Z,94.36
2019-03-16T23:47:58.880Z,94.38
2019-03-16T23:50:33.337Z,94.67
2019-03-16T23:53:05.176Z,94.79
2019-03-16T23:55:37.913Z,94.65
2019-03-16T23:58:11.662Z,94.53
